createdAt,value
2018-06-10T00:01:35.081Z,73.72
2018-06-10T00:04:06.073Z,74.48
2018-06-10T00:06:42.538Z,74.20
2018-06-10T00:09:11.744Z,74.68
2018-06-10T00:11:41.507Z,74.16
2018-06-10T00:14:12.581Z,75.09
2018-06-10T00:19:37.782Z,74.88
2018-06-10T00:24:49.203Z,74.62
2018-06-10T00:27:25.464Z,75.50
2018-06-10T00:29:55.751Z,74.74
2018-06-10T00:32:25.294Z,75.73
2018-06-10T00:34:55.678Z,75.83
2018-06-10T00:37:25.217Z,75.81
2018-06-10T00:39:54.344Z,75.62
2018-06-10T00:42:23.847Z,75.30
2018-06-10T00:44:52.770Z,74.98
2018-06-10T00:47:21.286Z,75.17
2018-06-10T00:49:49.966Z,75.49
2018-06-10T00:52:18.845Z,74.52
2018-06-10T00:54:49.767Z,74.71
2018-06-10T00:57:18.291Z,75.07
2018-06-10T00:59:52.566Z,75.20
2018-06-10T01:02:21.225Z,75.70
2018-06-10T01:04:58.000Z,75.74
2018-06-10T01:07:26.578Z,75.90
2018-06-10T01:09:55.117Z,75.42
2018-06-10T01:12:24.123Z,75.92
2018-06-10T01:15:00.465Z,75.05
2018-06-10T01:17:29.392Z,75.42
2018-06-10T01:19:58.474Z,75.30
2018-06-10T01:22:27.031Z,75.73
2018-06-10T01:24:55.786Z,75.51
2018-06-10T01:27:24.723Z,76.41
2018-06-10T01:29:53.446Z,76.26
2018-06-10T01:32:21.968Z,77.98
2018-06-10T01:34:50.931Z,78.09
2018-06-10T01:37:19.501Z,77.36
2018-06-10T01:39:48.255Z,78.55
2018-06-10T01:42:17.240Z,78.18
2018-06-10T01:44:47.160Z,78.03
2018-06-10T01:47:15.699Z,78.12
2018-06-10T01:49:44.581Z,78.13
2018-06-10T01:52:13.107Z,78.10
2018-06-10T01:54:41.823Z,78.10
2018-06-10T01:57:10.836Z,77.42
2018-06-10T01:59:39.696Z,78.22
2018-06-10T02:02:08.225Z,77.77
2018-06-10T02:04:43.921Z,77.85
2018-06-10T02:07:12.428Z,78.70
2018-06-10T02:09:40.943Z,78.66
2018-06-10T02:12:09.887Z,78.64
2018-06-10T02:14:38.454Z,78.31
2018-06-10T02:17:06.956Z,77.69
2018-06-10T02:19:35.920Z,77.34
2018-06-10T02:22:05.098Z,76.95
2018-06-10T02:24:33.602Z,77.21
2018-06-10T02:27:03.761Z,76.38
2018-06-10T02:29:33.360Z,75.95
2018-06-10T02:32:02.481Z,76.92
2018-06-10T02:34:32.120Z,76.32
2018-06-10T02:37:00.711Z,75.89
2018-06-10T02:39:29.349Z,75.59
2018-06-10T02:41:58.273Z,76.08
2018-06-10T02:44:26.779Z,76.43
2018-06-10T02:46:57.078Z,75.64
2018-06-10T02:49:25.920Z,75.83
2018-06-10T02:51:54.650Z,76.38
2018-06-10T02:54:23.115Z,76.59
2018-06-10T02:56:52.395Z,77.16
2018-06-10T02:59:21.913Z,76.80
2018-06-10T03:01:50.381Z,77.51
2018-06-10T03:04:18.992Z,77.18
2018-06-10T03:06:47.487Z,77.61
2018-06-10T03:09:16.980Z,77.76
2018-06-10T03:11:45.494Z,77.80
2018-06-10T03:14:13.982Z,77.59
2018-06-10T03:16:47.772Z,77.80
2018-06-10T03:19:16.313Z,78.14
2018-06-10T03:21:44.820Z,77.11
2018-06-10T03:24:13.869Z,77.32
2018-06-10T03:26:42.514Z,76.96
2018-06-10T03:29:11.131Z,76.57
2018-06-10T03:31:39.944Z,76.82
2018-06-10T03:34:11.765Z,76.81
2018-06-10T03:36:40.267Z,76.98
2018-06-10T03:39:10.042Z,76.16
2018-06-10T03:41:38.536Z,77.16
2018-06-10T03:44:07.007Z,77.31
2018-06-10T03:46:36.138Z,76.72
2018-06-10T03:49:04.695Z,76.41
2018-06-10T03:51:33.218Z,77.01
2018-06-10T03:54:03.188Z,76.48
2018-06-10T03:56:31.840Z,76.01
2018-06-10T03:59:00.326Z,76.17
2018-06-10T04:01:29.306Z,77.34
2018-06-10T04:03:57.961Z,77.37
2018-06-10T04:06:26.435Z,77.01
2018-06-10T04:08:55.314Z,77.23
2018-06-10T04:11:24.075Z,77.03
2018-06-10T04:13:52.595Z,77.21
2018-06-10T04:16:21.369Z,77.29
2018-06-10T04:19:00.825Z,77.25
2018-06-10T04:21:29.388Z,77.11
2018-06-10T04:23:57.905Z,77.28
2018-06-10T04:26:31.159Z,77.15
2018-06-10T04:29:00.231Z,76.92
2018-06-10T04:31:32.291Z,76.60
2018-06-10T04:34:01.058Z,76.42
2018-06-10T04:36:32.994Z,76.12
2018-06-10T04:39:01.552Z,75.66
2018-06-10T04:41:30.198Z,75.90
2018-06-10T04:43:59.055Z,75.72
2018-06-10T04:46:28.782Z,74.90
2018-06-10T04:48:57.290Z,75.00
2018-06-10T04:51:26.222Z,75.55
2018-06-10T04:53:54.690Z,76.05
2018-06-10T04:56:23.545Z,75.49
2018-06-10T04:58:52.410Z,75.04
2018-06-10T05:01:20.900Z,74.68
2018-06-10T05:03:49.615Z,74.45
2018-06-10T05:06:18.582Z,74.97
2018-06-10T05:08:49.113Z,74.51
2018-06-10T05:11:17.635Z,74.63
2018-06-10T05:13:46.535Z,75.33
2018-06-10T05:16:15.117Z,75.25
2018-06-10T05:18:44.567Z,74.45
2018-06-10T05:21:13.533Z,74.90
2018-06-10T05:23:42.064Z,74.12
2018-06-10T05:26:10.595Z,73.29
2018-06-10T05:28:40.442Z,74.27
2018-06-10T05:31:08.941Z,73.82
2018-06-10T05:33:37.480Z,74.02
2018-06-10T05:36:06.410Z,73.91
2018-06-10T05:38:34.875Z,73.65
2018-06-10T05:41:03.394Z,73.64
2018-06-10T05:43:33.593Z,73.22
2018-06-10T05:46:08.174Z,72.87
2018-06-10T05:48:37.280Z,71.71
2018-06-10T05:51:11.261Z,71.22
2018-06-10T05:53:40.011Z,71.21
2018-06-10T05:56:13.421Z,71.11
2018-06-10T05:58:42.124Z,70.41
2018-06-10T06:01:10.594Z,69.98
2018-06-10T06:03:39.741Z,69.14
2018-06-10T06:06:08.589Z,69.46
2018-06-10T06:08:39.392Z,69.98
2018-06-10T06:11:08.232Z,68.96
2018-06-10T06:13:37.803Z,68.32
2018-06-10T06:18:45.850Z,68.63
2018-06-10T06:21:25.272Z,69.23
2018-06-10T06:23:54.263Z,68.76
2018-06-10T06:26:27.856Z,69.44
2018-06-10T06:28:56.667Z,68.24
2018-06-10T06:31:27.592Z,68.57
2018-06-10T06:33:56.146Z,68.85
2018-06-10T06:36:24.700Z,68.97
2018-06-10T06:38:53.520Z,69.12
2018-06-10T06:41:27.631Z,69.66
2018-06-10T06:43:56.326Z,68.74
2018-06-10T06:46:24.882Z,69.70
2018-06-10T06:48:53.382Z,69.58
2018-06-10T06:51:23.235Z,69.02
2018-06-10T06:53:51.727Z,68.17
2018-06-10T06:56:20.303Z,68.84
2018-06-10T06:58:49.349Z,69.15
2018-06-10T07:01:17.895Z,68.34
2018-06-10T07:03:46.387Z,68.99
2018-06-10T07:06:15.453Z,67.99
2018-06-10T07:08:44.033Z,67.80
2018-06-10T07:11:12.550Z,66.75
2018-06-10T07:13:41.812Z,66.65
2018-06-10T07:16:10.354Z,65.98
2018-06-10T07:18:39.204Z,64.68
2018-06-10T07:21:08.222Z,65.09
2018-06-10T07:23:40.073Z,64.19
2018-06-10T07:26:08.569Z,65.34
2018-06-10T07:28:43.402Z,64.76
2018-06-10T07:31:11.939Z,64.04
2018-06-10T07:33:40.749Z,63.10
2018-06-10T07:36:09.795Z,63.46
2018-06-10T07:38:38.335Z,62.97
2018-06-10T07:41:06.922Z,63.28
2018-06-10T07:43:35.843Z,64.72
2018-06-10T07:46:05.371Z,64.50
2018-06-10T07:48:33.951Z,63.29
2018-06-10T07:51:03.049Z,62.28
2018-06-10T07:53:31.857Z,61.33
2018-06-10T07:56:00.467Z,60.96
2018-06-10T07:58:29.442Z,61.35
2018-06-10T08:00:57.957Z,62.72
2018-06-10T08:03:26.430Z,62.76
2018-06-10T08:05:55.740Z,62.69
2018-06-10T08:08:24.238Z,63.07
2018-06-10T08:10:52.738Z,63.07
2018-06-10T08:13:21.641Z,61.83
2018-06-10T08:15:50.667Z,63.02
2018-06-10T08:18:19.173Z,63.01
2018-06-10T08:20:47.726Z,62.77
2018-06-10T08:23:16.240Z,62.57
2018-06-10T08:25:45.451Z,61.76
2018-06-10T08:28:13.990Z,61.57
2018-06-10T08:30:42.732Z,60.92
2018-06-10T08:33:11.960Z,60.85
2018-06-10T08:35:40.484Z,59.79
2018-06-10T08:38:08.977Z,61.39
2018-06-10T08:40:38.017Z,61.23
2018-06-10T08:43:06.512Z,59.89
2018-06-10T08:45:35.050Z,60.57
2018-06-10T08:48:04.836Z,60.23
2018-06-10T08:50:33.378Z,59.28
2018-06-10T08:53:01.891Z,58.56
2018-06-10T08:55:30.851Z,58.97
2018-06-10T08:57:59.398Z,58.03
2018-06-10T09:00:36.540Z,58.80
2018-06-10T09:03:05.618Z,58.59
2018-06-10T09:05:40.880Z,58.87
2018-06-10T09:08:09.658Z,57.83
2018-06-10T09:10:39.376Z,58.19
2018-06-10T09:13:07.943Z,56.83
2018-06-10T09:15:37.191Z,58.79
2018-06-10T09:18:16.861Z,59.32
2018-06-10T09:20:48.549Z,57.79
2018-06-10T09:23:23.631Z,58.53
2018-06-10T09:25:53.333Z,57.61
2018-06-10T09:28:23.111Z,58.01
2018-06-10T09:30:53.826Z,57.59
2018-06-10T09:33:24.569Z,56.90
2018-06-10T09:35:55.126Z,57.01
2018-06-10T09:38:24.922Z,56.09
2018-06-10T09:40:54.503Z,54.86
2018-06-10T09:43:24.907Z,54.89
2018-06-10T09:45:55.212Z,54.69
2018-06-10T09:48:24.487Z,54.24
2018-06-10T09:50:53.464Z,54.29
2018-06-10T09:53:21.992Z,54.40
2018-06-10T09:55:54.869Z,53.12
2018-06-10T09:58:23.353Z,52.32
2018-06-10T10:00:51.815Z,52.75
2018-06-10T10:03:20.754Z,51.93
2018-06-10T10:05:49.318Z,51.93
2018-06-10T10:08:17.740Z,51.54
2018-06-10T10:10:46.835Z,51.97
2018-06-10T10:13:15.304Z,50.25
2018-06-10T10:15:49.070Z,50.30
2018-06-10T10:18:17.912Z,50.68
2018-06-10T10:20:46.483Z,50.30
2018-06-10T10:23:15.260Z,51.47
2018-06-10T10:25:44.335Z,51.30
2018-06-10T10:28:12.858Z,50.73
2018-06-10T10:30:47.278Z,51.88
2018-06-10T10:33:16.226Z,52.95
2018-06-10T10:35:44.753Z,52.25
2018-06-10T10:38:13.330Z,50.67
2018-06-10T10:40:44.829Z,49.87
2018-06-10T10:43:13.348Z,49.70
2018-06-10T10:45:42.578Z,50.08
2018-06-10T10:48:13.210Z,50.20
2018-06-10T10:50:42.652Z,48.70
2018-06-10T10:53:15.809Z,47.75
2018-06-10T10:55:44.739Z,47.36
2018-06-10T10:58:14.287Z,45.24
2018-06-10T11:00:42.983Z,43.40
2018-06-10T11:03:11.867Z,43.47
2018-06-10T11:05:40.759Z,43.00
2018-06-10T11:10:43.185Z,43.71
2018-06-10T11:13:11.768Z,42.93
2018-06-10T11:15:40.411Z,43.45
2018-06-10T11:18:09.402Z,42.53
2018-06-10T11:20:37.973Z,42.51
2018-06-10T11:23:08.365Z,40.66
2018-06-10T11:25:37.621Z,41.12
2018-06-10T11:28:06.131Z,40.26
2018-06-10T11:30:38.206Z,37.26
2018-06-10T11:33:07.540Z,37.93
2018-06-10T11:35:36.602Z,37.35
2018-06-10T11:38:06.458Z,38.27
2018-06-10T11:40:39.134Z,38.58
2018-06-10T11:43:09.463Z,38.62
2018-06-10T11:45:38.115Z,37.68
2018-06-10T11:48:12.034Z,36.05
2018-06-10T11:50:41.603Z,34.42
2018-06-10T11:55:33.461Z,33.34
2018-06-10T11:58:03.086Z,33.18
2018-06-10T12:00:33.075Z,33.70
2018-06-10T12:03:02.166Z,35.09
2018-06-10T12:05:31.168Z,35.89
2018-06-10T12:08:00.299Z,36.49
2018-06-10T12:10:28.831Z,37.81
2018-06-10T12:12:57.453Z,37.72
2018-06-10T12:15:32.801Z,36.29
2018-06-10T12:20:42.275Z,34.95
2018-06-10T12:23:12.851Z,34.38
2018-06-10T12:25:41.327Z,32.01
2018-06-10T12:28:12.259Z,30.93
2018-06-10T12:30:40.685Z,31.04
2018-06-10T12:33:09.122Z,31.33
2018-06-10T12:35:39.231Z,30.74
2018-06-10T12:38:07.902Z,30.15
2018-06-10T12:40:37.814Z,31.07
2018-06-10T12:43:06.722Z,31.25
2018-06-10T12:45:35.770Z,31.33
2018-06-10T12:48:05.366Z,31.65
2018-06-10T12:50:34.862Z,29.48
2018-06-10T12:53:03.425Z,32.49
2018-06-10T12:55:34.699Z,35.32
2018-06-10T12:58:04.543Z,35.97
2018-06-10T13:00:33.215Z,38.76
2018-06-10T13:03:01.751Z,35.55
2018-06-10T13:05:37.133Z,34.41
2018-06-10T13:08:05.914Z,33.99
2018-06-10T13:10:39.365Z,32.15
2018-06-10T13:13:08.338Z,31.16
2018-06-10T13:15:36.894Z,30.91
2018-06-10T13:18:05.613Z,32.63
2018-06-10T13:20:36.757Z,32.87
2018-06-10T13:23:06.331Z,35.52
2018-06-10T13:25:35.605Z,35.98
2018-06-10T13:28:05.383Z,33.90
2018-06-10T13:30:39.786Z,31.94
2018-06-10T13:33:08.389Z,33.22
2018-06-10T13:35:37.147Z,29.48
2018-06-10T13:38:06.761Z,27.82
2018-06-10T13:40:36.028Z,28.43
2018-06-10T13:45:48.985Z,27.55
2018-06-10T13:48:24.104Z,26.54
2018-06-10T13:50:52.949Z,26.94
2018-06-10T13:53:21.562Z,27.17
2018-06-10T13:55:50.600Z,28.54
2018-06-10T13:58:19.346Z,33.34
2018-06-10T14:00:48.064Z,32.54
2018-06-10T14:03:16.914Z,31.27
2018-06-10T14:05:45.756Z,31.61
2018-06-10T14:08:14.306Z,31.28
2018-06-10T14:10:43.474Z,29.09
2018-06-10T14:13:11.981Z,27.62
2018-06-10T14:15:46.575Z,26.46
2018-06-10T14:18:15.577Z,26.80
2018-06-10T14:20:44.982Z,27.62
2018-06-10T14:23:16.814Z,28.89
2018-06-10T14:25:45.866Z,31.17
2018-06-10T14:28:15.126Z,31.34
2018-06-10T14:30:48.163Z,33.55
2018-06-10T14:33:17.190Z,34.19
2018-06-10T14:35:47.180Z,33.66
2018-06-10T14:38:15.728Z,31.13
2018-06-10T14:40:44.961Z,30.57
2018-06-10T14:43:17.361Z,31.08
2018-06-10T14:45:46.151Z,31.66
2018-06-10T14:48:20.438Z,29.87
2018-06-10T14:50:49.387Z,25.90
2018-06-10T14:53:25.390Z,23.35
2018-06-10T14:55:54.216Z,21.20
2018-06-10T14:58:26.376Z,19.95
2018-06-10T15:00:55.688Z,19.97
2018-06-10T15:03:24.262Z,19.23
2018-06-10T15:05:52.832Z,17.92
2018-06-10T15:08:21.637Z,17.28
2018-06-10T15:10:50.214Z,17.35
2018-06-10T15:13:18.721Z,17.37
2018-06-10T15:15:48.005Z,17.19
2018-06-10T15:18:21.594Z,17.39
2018-06-10T15:20:50.177Z,17.24
2018-06-10T15:23:18.998Z,17.34
2018-06-10T15:25:47.845Z,16.94
2018-06-10T15:28:17.446Z,16.71
2018-06-10T15:30:46.464Z,17.30
2018-06-10T15:33:15.038Z,17.81
2018-06-10T15:35:44.800Z,17.30
2018-06-10T15:38:13.737Z,18.30
2018-06-10T15:40:42.750Z,19.65
2018-06-10T15:43:12.253Z,20.09
2018-06-10T15:45:41.663Z,20.92
2018-06-10T15:48:14.851Z,22.30
2018-06-10T15:50:44.174Z,23.67
2018-06-10T15:53:13.170Z,26.22
2018-06-10T15:55:41.915Z,26.93
2018-06-10T15:58:10.741Z,27.95
2018-06-10T16:00:43.695Z,28.24
2018-06-10T16:03:12.200Z,29.72
2018-06-10T16:05:40.896Z,29.85
2018-06-10T16:08:09.599Z,31.17
2018-06-10T16:10:49.502Z,31.83
2018-06-10T16:13:18.196Z,33.71
2018-06-10T16:15:54.055Z,32.82
2018-06-10T16:18:22.586Z,34.01
2018-06-10T16:20:51.162Z,34.32
2018-06-10T16:23:20.210Z,34.34
2018-06-10T16:25:48.745Z,35.47
2018-06-10T16:28:19.496Z,34.83
2018-06-10T16:30:48.943Z,35.53
2018-06-10T16:33:17.481Z,35.49
2018-06-10T16:35:46.052Z,38.12
2018-06-10T16:38:15.029Z,38.33
2018-06-10T16:40:43.699Z,39.40
2018-06-10T16:43:12.232Z,39.23
2018-06-10T16:45:41.264Z,40.16
2018-06-10T16:48:09.754Z,41.16
2018-06-10T16:50:40.355Z,43.33
2018-06-10T16:55:43.670Z,44.72
2018-06-10T16:58:16.035Z,45.15
2018-06-10T17:00:45.345Z,46.07
2018-06-10T17:03:15.316Z,47.12
2018-06-10T17:05:43.987Z,52.83
2018-06-10T17:08:13.200Z,54.64
2018-06-10T17:10:41.816Z,55.55
2018-06-10T17:13:10.355Z,55.42
2018-06-10T17:15:54.035Z,54.05
2018-06-10T17:18:22.747Z,57.97
2018-06-10T17:20:57.479Z,59.91
2018-06-10T17:23:26.094Z,59.38
2018-06-10T17:26:01.046Z,59.42
2018-06-10T17:28:29.616Z,60.52
2018-06-10T17:30:58.240Z,60.27
2018-06-10T17:33:27.106Z,60.43
2018-06-10T17:35:55.700Z,59.46
2018-06-10T17:38:26.210Z,62.49
2018-06-10T17:40:54.799Z,62.65
2018-06-10T17:43:23.428Z,62.22
2018-06-10T17:45:52.359Z,61.79
2018-06-10T17:48:21.470Z,63.42
2018-06-10T17:50:50.964Z,63.54
2018-06-10T17:53:21.336Z,62.95
2018-06-10T17:55:50.215Z,61.56
2018-06-10T17:58:19.466Z,62.75
2018-06-10T18:00:48.322Z,61.82
2018-06-10T18:03:25.104Z,64.12
2018-06-10T18:05:53.881Z,65.51
2018-06-10T18:08:22.493Z,65.28
2018-06-10T18:10:51.112Z,65.17
2018-06-10T18:13:20.060Z,65.46
2018-06-10T18:15:48.692Z,64.51
2018-06-10T18:18:17.395Z,66.18
2018-06-10T18:20:46.706Z,64.47
2018-06-10T18:23:15.289Z,66.63
2018-06-10T18:25:43.912Z,67.23
2018-06-10T18:28:12.938Z,64.99
2018-06-10T18:30:41.758Z,64.25
2018-06-10T18:33:10.380Z,63.87
2018-06-10T18:35:45.426Z,64.26
2018-06-10T18:38:14.155Z,64.94
2018-06-10T18:40:43.207Z,65.89
2018-06-10T18:43:12.010Z,63.94
2018-06-10T18:45:41.202Z,64.88
2018-06-10T18:48:09.799Z,64.50
2018-06-10T18:50:39.063Z,64.82
2018-06-10T18:53:07.650Z,64.84
2018-06-10T18:55:37.106Z,64.30
2018-06-10T18:58:06.346Z,65.06
2018-06-10T19:00:36.078Z,65.23
2018-06-10T19:03:04.707Z,65.28
2018-06-10T19:05:34.516Z,66.62
2018-06-10T19:08:04.588Z,65.89
2018-06-10T19:10:33.208Z,67.09
2018-06-10T19:13:08.386Z,66.67
2018-06-10T19:15:36.947Z,66.48
2018-06-10T19:18:06.554Z,67.21
2018-06-10T19:20:41.041Z,65.44
2018-06-10T19:23:09.511Z,65.54
2018-06-10T19:25:38.131Z,65.81
2018-06-10T19:28:08.756Z,67.43
2018-06-10T19:30:37.800Z,66.26
2018-06-10T19:33:06.329Z,66.70
2018-06-10T19:35:36.424Z,68.20
2018-06-10T19:38:06.073Z,67.54
2018-06-10T19:40:34.585Z,67.56
2018-06-10T19:43:03.546Z,67.44
2018-06-10T19:45:32.254Z,67.94
2018-06-10T19:48:01.116Z,68.28
2018-06-10T19:50:31.007Z,65.84
2018-06-10T19:52:59.586Z,65.56
2018-06-10T19:55:28.180Z,65.47
2018-06-10T19:58:00.351Z,64.94
2018-06-10T20:00:28.940Z,64.74
2018-06-10T20:02:57.698Z,66.38
2018-06-10T20:05:26.786Z,65.79
2018-06-10T20:07:55.290Z,66.05
2018-06-10T20:10:23.791Z,64.92
2018-06-10T20:12:56.537Z,64.74
2018-06-10T20:15:25.053Z,64.53
2018-06-10T20:20:33.755Z,64.70
2018-06-10T20:23:07.827Z,65.09
2018-06-10T20:25:36.653Z,65.67
2018-06-10T20:28:05.845Z,66.00
2018-06-10T20:33:14.031Z,66.74
2018-06-10T20:35:42.847Z,66.27
2018-06-10T20:38:11.409Z,66.62
2018-06-10T20:40:40.361Z,67.45
2018-06-10T20:43:08.933Z,66.62
2018-06-10T20:45:43.269Z,67.11
2018-06-10T20:48:12.140Z,67.28
2018-06-10T20:50:41.311Z,67.74
2018-06-10T20:53:10.385Z,68.28
2018-06-10T20:55:39.369Z,69.02
2018-06-10T20:58:13.512Z,69.10
2018-06-10T21:00:42.206Z,68.57
2018-06-10T21:03:11.291Z,68.55
2018-06-10T21:05:40.242Z,69.16
2018-06-10T21:08:08.933Z,68.85
2018-06-10T21:10:38.960Z,69.45
2018-06-10T21:13:07.549Z,70.64
2018-06-10T21:15:36.322Z,69.98
2018-06-10T21:18:06.319Z,71.11
2018-06-10T21:20:40.370Z,69.71
2018-06-10T21:23:09.045Z,68.20
2018-06-10T21:25:40.940Z,69.31
2018-06-10T21:28:09.477Z,69.48
2018-06-10T21:30:38.346Z,69.97
2018-06-10T21:33:21.972Z,71.32
2018-06-10T21:35:50.544Z,71.18
2018-06-10T21:38:25.297Z,71.00
2018-06-10T21:40:53.798Z,71.72
2018-06-10T21:43:22.346Z,72.06
2018-06-10T21:45:52.371Z,72.81
2018-06-10T21:48:20.953Z,72.14
2018-06-10T21:53:27.209Z,77.52
2018-06-10T21:55:55.797Z,81.58
2018-06-10T21:58:29.570Z,82.69
2018-06-10T22:00:58.562Z,81.99
2018-06-10T22:03:27.059Z,83.33
2018-06-10T22:05:55.624Z,83.55
2018-06-10T22:08:24.600Z,82.90
2018-06-10T22:10:53.317Z,84.21
2018-06-10T22:13:25.906Z,84.04
2018-06-10T22:15:55.850Z,85.50
2018-06-10T22:18:27.074Z,85.77
2018-06-10T22:20:55.847Z,86.76
2018-06-10T22:23:24.815Z,85.82
2018-06-10T22:25:53.846Z,85.72
2018-06-10T22:28:22.498Z,85.30
2018-06-10T22:30:51.381Z,84.88
2018-06-10T22:33:23.090Z,85.00
2018-06-10T22:35:51.614Z,83.83
2018-06-10T22:38:20.546Z,83.87
2018-06-10T22:40:49.341Z,83.09
2018-06-10T22:43:18.069Z,83.51
2018-06-10T22:45:47.003Z,81.82
2018-06-10T22:48:15.652Z,82.74
2018-06-10T22:50:45.204Z,82.24
2018-06-10T22:53:26.218Z,80.03
2018-06-10T22:55:55.408Z,79.74
2018-06-10T22:58:24.346Z,79.10
2018-06-10T23:00:57.186Z,79.66
2018-06-10T23:03:26.166Z,79.25
2018-06-10T23:05:55.291Z,79.65
2018-06-10T23:08:23.905Z,80.05
2018-06-10T23:10:52.448Z,78.86
2018-06-10T23:13:21.583Z,79.34
2018-06-10T23:15:50.162Z,79.45
2018-06-10T23:18:18.687Z,79.45
2018-06-10T23:20:51.328Z,78.52
2018-06-10T23:23:19.898Z,78.27
2018-06-10T23:25:54.056Z,79.13
2018-06-10T23:28:22.596Z,80.21
2018-06-10T23:30:55.786Z,79.31
2018-06-10T23:33:25.124Z,79.42
2018-06-10T23:35:54.038Z,79.07
2018-06-10T23:38:22.602Z,78.01
2018-06-10T23:40:51.777Z,77.64
2018-06-10T23:43:20.285Z,78.40
2018-06-10T23:45:48.919Z,78.15
2018-06-10T23:48:17.845Z,79.01
2018-06-10T23:50:46.460Z,79.04
2018-06-10T23:53:15.298Z,80.46
2018-06-10T23:55:44.246Z,79.86
2018-06-10T23:58:12.930Z,79.97
